createdAt,value
2022-09-27T00:00:06.597Z,99.99
2022-09-27T00:01:06.627Z,99.99
2022-09-27T00:02:06.668Z,99.99
2022-09-27T00:03:06.549Z,99.99
2022-09-27T00:04:06.510Z,99.99
2022-09-27T00:05:06.521Z,99.99
2022-09-27T00:06:06.521Z,99.99
2022-09-27T00:07:06.489Z,99.99
2022-09-27T00:08:06.465Z,99.99
2022-09-27T00:09:06.462Z,99.99
2022-09-27T00:10:06.441Z,99.99
2022-09-27T00:11:06.443Z,99.99
2022-09-27T00:12:06.439Z,99.99
2022-09-27T00:13:06.395Z,99.99
2022-09-27T00:14:06.379Z,99.99
2022-09-27T00:15:06.367Z,99.99
2022-09-27T00:16:06.429Z,99.99
2022-09-27T00:17:06.368Z,99.99
2022-09-27T00:18:06.328Z,99.99
2022-09-27T00:19:06.330Z,99.99
2022-09-27T00:20:06.297Z,99.99
2022-09-27T00:21:06.294Z,99.99
2022-09-27T00:22:06.315Z,99.99
2022-09-27T00:23:06.261Z,99.99
2022-09-27T00:24:06.256Z,99.99
2022-09-27T00:25:06.233Z,99.99
2022-09-27T00:26:06.220Z,99.99
2022-09-27T00:27:06.262Z,99.99
2022-09-27T00:28:06.204Z,99.99
2022-09-27T00:29:06.192Z,99.99
2022-09-27T00:30:06.170Z,99.99
2022-09-27T00:31:06.232Z,99.99
2022-09-27T00:32:06.181Z,99.99
2022-09-27T00:33:06.141Z,99.99
2022-09-27T00:34:06.118Z,99.99
2022-09-27T00:35:06.107Z,99.99
2022-09-27T00:36:06.097Z,99.99
2022-09-27T00:37:06.138Z,99.99
2022-09-27T00:38:06.069Z,99.99
2022-09-27T00:39:06.058Z,99.99
2022-09-27T00:40:06.077Z,99.99
2022-09-27T00:41:06.069Z,99.99
2022-09-27T00:42:06.046Z,99.99
2022-09-27T00:43:06.002Z,99.99
2022-09-27T00:44:05.989Z,99.99
2022-09-27T00:45:05.978Z,99.99
2022-09-27T00:46:06.025Z,99.99
2022-09-27T00:47:05.989Z,99.99
2022-09-27T00:48:05.932Z,99.99
2022-09-27T00:49:05.925Z,99.99
2022-09-27T00:50:05.907Z,99.99
2022-09-27T00:51:05.925Z,99.99
2022-09-27T00:52:05.917Z,99.99
2022-09-27T00:53:05.881Z,99.99
2022-09-27T00:54:05.857Z,99.99
2022-09-27T00:55:05.868Z,99.99
2022-09-27T00:56:05.828Z,99.99
2022-09-27T00:57:05.847Z,99.99
2022-09-27T00:58:05.808Z,99.99
2022-09-27T00:59:05.798Z,99.99
2022-09-27T01:00:05.790Z,99.99
2022-09-27T01:01:05.870Z,99.99
2022-09-27T01:02:05.856Z,99.99
2022-09-27T01:03:05.746Z,99.99
2022-09-27T01:04:05.728Z,99.99
2022-09-27T01:05:05.716Z,99.99
2022-09-27T01:06:05.697Z,99.99
2022-09-27T01:07:05.729Z,99.99
2022-09-27T01:08:05.676Z,99.99
2022-09-27T01:09:05.667Z,99.99
2022-09-27T01:10:05.659Z,99.99
2022-09-27T01:11:05.653Z,99.99
2022-09-27T01:12:05.659Z,99.99
2022-09-27T01:13:05.606Z,99.99
2022-09-27T01:14:05.629Z,99.99
2022-09-27T01:15:05.577Z,99.99
2022-09-27T01:16:05.605Z,99.99
2022-09-27T01:17:05.591Z,99.99
2022-09-27T01:18:05.590Z,99.99
2022-09-27T01:19:05.537Z,99.99
2022-09-27T01:20:05.528Z,99.99
2022-09-27T01:21:05.527Z,99.99
2022-09-27T01:22:05.514Z,99.99
2022-09-27T01:23:05.479Z,99.99
2022-09-27T01:24:05.474Z,99.99
2022-09-27T01:25:05.471Z,99.99
2022-09-27T01:26:05.443Z,99.99
2022-09-27T01:27:05.445Z,99.99
2022-09-27T01:28:05.432Z,99.99
2022-09-27T01:29:05.394Z,99.99
2022-09-27T01:30:05.402Z,99.99
2022-09-27T01:31:05.443Z,99.99
2022-09-27T01:32:05.425Z,99.99
2022-09-27T01:33:05.346Z,99.99
2022-09-27T01:34:05.405Z,99.99
2022-09-27T01:35:05.378Z,99.99
2022-09-27T01:36:05.324Z,99.99
2022-09-27T01:37:05.340Z,99.99
2022-09-27T01:38:05.284Z,99.99
2022-09-27T01:39:05.266Z,99.99
2022-09-27T01:40:05.262Z,99.99
2022-09-27T01:41:05.248Z,99.99
2022-09-27T01:42:05.272Z,99.99
2022-09-27T01:43:05.222Z,99.99
2022-09-27T01:44:05.214Z,99.99
2022-09-27T01:45:05.194Z,99.99
2022-09-27T01:46:05.209Z,99.99
2022-09-27T01:47:05.202Z,99.99
2022-09-27T01:48:05.154Z,99.99
2022-09-27T01:49:05.134Z,99.99
2022-09-27T01:50:05.137Z,99.99
2022-09-27T01:51:05.115Z,99.99
2022-09-27T01:52:05.168Z,99.99
2022-09-27T01:53:05.133Z,99.99
2022-09-27T01:54:05.073Z,99.99
2022-09-27T01:55:05.063Z,99.99
2022-09-27T01:56:05.053Z,99.99
2022-09-27T01:57:05.066Z,99.99
2022-09-27T01:58:05.033Z,99.99
2022-09-27T01:59:05.003Z,99.99
2022-09-27T02:00:05.037Z,99.99
2022-09-27T02:01:05.030Z,99.99
2022-09-27T02:02:05.003Z,99.99
2022-09-27T02:03:05.038Z,99.99
2022-09-27T02:04:04.953Z,99.99
2022-09-27T02:05:04.933Z,99.99
2022-09-27T02:06:04.913Z,99.99
2022-09-27T02:07:04.935Z,99.99
2022-09-27T02:08:04.951Z,99.99
2022-09-27T02:09:04.907Z,99.99
2022-09-27T02:10:04.905Z,99.99
2022-09-27T02:11:04.853Z,99.99
2022-09-27T02:12:04.873Z,99.99
2022-09-27T02:13:04.833Z,99.99
2022-09-27T02:14:04.854Z,99.99
2022-09-27T02:15:04.834Z,99.99
2022-09-27T02:16:04.926Z,99.99
2022-09-27T02:17:04.804Z,99.99
2022-09-27T02:18:04.753Z,99.99
2022-09-27T02:19:04.792Z,99.99
2022-09-27T02:20:04.766Z,99.99
2022-09-27T02:21:04.722Z,99.99
2022-09-27T02:22:04.765Z,99.99
2022-09-27T02:23:04.692Z,99.99
2022-09-27T02:24:04.681Z,99.99
2022-09-27T02:25:04.670Z,99.99
2022-09-27T02:26:04.653Z,99.99
2022-09-27T02:27:04.672Z,99.99
2022-09-27T02:28:04.681Z,99.99
2022-09-27T02:29:04.626Z,99.99
2022-09-27T02:30:04.711Z,99.99
2022-09-27T02:31:04.626Z,99.99
2022-09-27T02:32:04.612Z,99.99
2022-09-27T02:33:04.569Z,99.99
2022-09-27T02:34:04.556Z,99.99
2022-09-27T02:35:04.552Z,99.99
2022-09-27T02:36:04.525Z,99.99
2022-09-27T02:37:04.542Z,99.99
2022-09-27T02:38:04.491Z,99.99
2022-09-27T02:39:04.496Z,99.99
2022-09-27T02:40:04.476Z,99.99
2022-09-27T02:41:04.532Z,99.99
2022-09-27T02:42:04.481Z,99.99
2022-09-27T02:43:04.431Z,99.99
2022-09-27T02:44:04.412Z,99.99
2022-09-27T02:45:04.411Z,99.99
2022-09-27T02:46:04.437Z,99.99
2022-09-27T02:47:04.415Z,99.99
2022-09-27T02:48:04.386Z,99.99
2022-09-27T02:49:04.363Z,99.99
2022-09-27T02:50:04.351Z,99.99
2022-09-27T02:51:04.328Z,99.99
2022-09-27T02:52:04.341Z,99.99
2022-09-27T02:53:04.312Z,99.99
2022-09-27T02:54:04.298Z,99.99
2022-09-27T02:55:04.271Z,99.99
2022-09-27T02:56:04.263Z,99.99
2022-09-27T02:57:04.302Z,99.99
2022-09-27T02:58:04.231Z,99.99
2022-09-27T02:59:04.236Z,99.99
2022-09-27T03:00:04.220Z,99.99
2022-09-27T03:01:04.314Z,99.99
2022-09-27T03:02:04.243Z,99.99
2022-09-27T03:03:04.246Z,99.99
2022-09-27T03:04:04.159Z,99.99
2022-09-27T03:05:04.181Z,99.99
2022-09-27T03:06:04.152Z,99.99
2022-09-27T03:07:04.170Z,99.99
2022-09-27T03:08:04.123Z,99.99
2022-09-27T03:09:04.089Z,99.99
2022-09-27T03:10:04.116Z,99.99
2022-09-27T03:11:04.080Z,99.99
2022-09-27T03:12:04.086Z,99.99
2022-09-27T03:13:04.070Z,99.99
2022-09-27T03:14:11.089Z,99.99
2022-09-27T03:15:05.011Z,99.99
2022-09-27T03:16:04.001Z,99.99
2022-09-27T03:17:04.084Z,99.99
2022-09-27T03:18:03.979Z,99.99
2022-09-27T03:19:03.990Z,99.99
2022-09-27T03:20:03.950Z,99.99
2022-09-27T03:21:03.950Z,99.99
2022-09-27T03:22:03.954Z,99.99
2022-09-27T03:23:03.909Z,99.99
2022-09-27T03:24:03.911Z,99.99
2022-09-27T03:25:03.895Z,99.99
2022-09-27T03:26:03.918Z,99.99
2022-09-27T03:27:03.889Z,99.99
2022-09-27T03:28:03.840Z,99.99
2022-09-27T03:29:03.843Z,99.99
2022-09-27T03:30:03.817Z,99.99
2022-09-27T03:31:04.013Z,99.99
2022-09-27T03:32:03.893Z,99.99
2022-09-27T03:33:03.820Z,99.99
2022-09-27T03:34:03.803Z,99.99
2022-09-27T03:35:03.774Z,99.99
2022-09-27T03:36:03.747Z,99.99
2022-09-27T03:37:03.772Z,99.99
2022-09-27T03:38:03.728Z,99.99
2022-09-27T03:39:03.701Z,99.99
2022-09-27T03:40:03.681Z,99.99
2022-09-27T03:41:03.735Z,99.99
2022-09-27T03:42:03.689Z,99.99
2022-09-27T03:43:03.655Z,99.99
2022-09-27T03:44:03.636Z,99.99
2022-09-27T03:45:03.646Z,99.99
2022-09-27T03:46:03.673Z,99.99
2022-09-27T03:47:03.630Z,99.99
2022-09-27T03:48:03.580Z,99.99
2022-09-27T03:49:03.578Z,99.99
2022-09-27T03:50:03.568Z,99.99
2022-09-27T03:51:03.548Z,99.99
2022-09-27T03:52:03.568Z,99.99
2022-09-27T03:53:03.530Z,99.99
2022-09-27T03:54:03.507Z,99.99
2022-09-27T03:55:05.768Z,99.99
2022-09-27T03:56:03.477Z,99.99
2022-09-27T03:57:03.508Z,99.99
2022-09-27T03:58:03.455Z,99.99
2022-09-27T03:59:03.440Z,99.99
2022-09-27T04:00:03.500Z,99.99
2022-09-27T04:01:03.492Z,99.99
2022-09-27T04:02:03.460Z,99.99
2022-09-27T04:03:03.396Z,99.99
2022-09-27T04:04:05.545Z,99.99
2022-09-27T04:05:04.379Z,99.99
2022-09-27T04:06:03.376Z,99.99
2022-09-27T04:07:03.377Z,99.99
2022-09-27T04:08:03.478Z,99.99
2022-09-27T04:09:03.334Z,99.99
2022-09-27T04:10:03.296Z,99.99
2022-09-27T04:11:03.286Z,99.99
2022-09-27T04:12:03.296Z,99.99
2022-09-27T04:13:03.265Z,99.99
2022-09-27T04:14:03.272Z,99.99
2022-09-27T04:15:03.327Z,99.99
2022-09-27T04:16:03.244Z,99.99
2022-09-27T04:17:03.298Z,99.99
2022-09-27T04:18:04.150Z,99.99
2022-09-27T04:19:03.186Z,99.99
2022-09-27T04:20:03.183Z,99.99
2022-09-27T04:21:03.165Z,99.99
2022-09-27T04:22:03.168Z,99.99
2022-09-27T04:23:03.142Z,99.99
2022-09-27T04:24:03.117Z,99.99
2022-09-27T04:25:03.109Z,99.99
2022-09-27T04:26:03.160Z,99.99
2022-09-27T04:27:03.150Z,99.99
2022-09-27T04:28:03.070Z,99.99
2022-09-27T04:29:03.063Z,99.99
2022-09-27T04:30:03.067Z,99.99
2022-09-27T04:31:03.145Z,99.99
2022-09-27T04:32:03.047Z,99.99
2022-09-27T04:33:03.007Z,99.99
2022-09-27T04:34:03.033Z,99.99
2022-09-27T04:35:03.005Z,99.99
2022-09-27T04:36:02.966Z,99.99
2022-09-27T04:37:02.972Z,99.99
2022-09-27T04:38:03.185Z,99.99
2022-09-27T04:39:02.938Z,99.99
2022-09-27T04:40:02.916Z,99.99
2022-09-27T04:41:02.989Z,99.99
2022-09-27T04:42:02.925Z,99.99
2022-09-27T04:43:02.887Z,99.99
2022-09-27T04:44:02.872Z,99.99
2022-09-27T04:45:03.488Z,99.99
2022-09-27T04:46:02.959Z,99.99
2022-09-27T04:47:02.923Z,99.99
2022-09-27T04:48:02.811Z,99.99
2022-09-27T04:49:02.806Z,99.99
2022-09-27T04:50:02.949Z,99.99
2022-09-27T04:51:02.793Z,99.99
2022-09-27T04:52:02.796Z,99.99
2022-09-27T04:53:02.743Z,99.99
2022-09-27T04:54:02.755Z,99.99
2022-09-27T04:55:02.884Z,99.99
2022-09-27T04:56:02.654Z,99.99
2022-09-27T04:57:02.674Z,99.99
2022-09-27T04:58:02.637Z,99.99
2022-09-27T04:59:03.909Z,99.99
2022-09-27T05:00:02.668Z,99.99
2022-09-27T05:01:02.655Z,99.99
2022-09-27T05:02:02.700Z,99.99
2022-09-27T05:03:02.645Z,99.99
2022-09-27T05:04:02.561Z,99.99
2022-09-27T05:05:02.544Z,99.99
2022-09-27T05:06:02.540Z,99.99
2022-09-27T05:07:03.233Z,99.99
2022-09-27T05:08:02.493Z,99.99
2022-09-27T05:09:02.485Z,99.99
2022-09-27T05:10:02.473Z,99.99
2022-09-27T05:11:02.474Z,99.99
2022-09-27T05:12:02.543Z,99.99
2022-09-27T05:13:02.425Z,99.99
2022-09-27T05:14:02.421Z,99.99
2022-09-27T05:15:02.434Z,99.99
2022-09-27T05:16:02.398Z,99.99
2022-09-27T05:17:02.441Z,99.99
2022-09-27T05:18:06.502Z,99.99
2022-09-27T05:19:02.384Z,99.99
2022-09-27T05:20:02.344Z,99.99
2022-09-27T05:21:02.323Z,99.99
2022-09-27T05:22:02.312Z,99.99
2022-09-27T05:23:02.345Z,99.99
2022-09-27T05:24:02.309Z,99.99
2022-09-27T05:25:02.268Z,99.99
2022-09-27T05:26:02.262Z,99.99
2022-09-27T05:27:02.262Z,99.99
2022-09-27T05:28:02.271Z,99.99
2022-09-27T05:29:02.221Z,99.99
2022-09-27T05:30:02.274Z,99.99
2022-09-27T05:31:02.254Z,99.99
2022-09-27T05:32:02.183Z,99.99
2022-09-27T05:33:02.209Z,99.99
2022-09-27T05:34:02.165Z,99.99
2022-09-27T05:35:02.150Z,99.99
2022-09-27T05:36:02.163Z,99.99
2022-09-27T05:37:02.129Z,99.99
2022-09-27T05:38:02.139Z,99.99
2022-09-27T05:39:02.092Z,99.99
2022-09-27T05:40:16.855Z,99.99
2022-09-27T05:41:03.140Z,99.99
2022-09-27T05:42:02.061Z,99.99
2022-09-27T05:43:02.085Z,99.99
2022-09-27T05:44:02.031Z,99.99
2022-09-27T05:45:02.014Z,99.99
2022-09-27T05:46:02.066Z,99.99
2022-09-27T05:47:01.991Z,99.99
2022-09-27T05:48:02.103Z,99.99
2022-09-27T05:49:01.972Z,99.99
2022-09-27T05:50:01.969Z,99.99
2022-09-27T05:51:01.940Z,99.99
2022-09-27T05:52:01.980Z,99.99
2022-09-27T05:53:01.949Z,99.99
2022-09-27T05:54:01.900Z,99.99
2022-09-27T05:55:01.900Z,99.99
2022-09-27T05:56:01.885Z,99.99
2022-09-27T05:57:01.882Z,99.99
2022-09-27T05:58:01.904Z,99.99
2022-09-27T05:59:01.840Z,99.99
2022-09-27T06:00:01.873Z,99.99
2022-09-27T06:01:01.820Z,99.99
2022-09-27T06:02:01.815Z,99.99
2022-09-27T06:03:01.895Z,99.99
2022-09-27T06:04:01.805Z,99.99
2022-09-27T06:05:01.765Z,99.99
2022-09-27T06:06:01.759Z,99.99
2022-09-27T06:07:01.749Z,99.99
2022-09-27T06:08:01.749Z,99.99
2022-09-27T06:09:01.829Z,99.99
2022-09-27T06:10:01.710Z,99.99
2022-09-27T06:11:01.697Z,99.99
2022-09-27T06:12:01.676Z,99.99
2022-09-27T06:13:01.680Z,99.99
2022-09-27T06:14:01.655Z,99.99
2022-09-27T06:15:01.638Z,99.99
2022-09-27T06:16:01.618Z,99.99
2022-09-27T06:17:01.696Z,99.99
2022-09-27T06:18:01.627Z,99.99
2022-09-27T06:19:01.569Z,99.99
2022-09-27T06:20:01.589Z,99.99
2022-09-27T06:21:01.563Z,99.99
2022-09-27T06:22:01.578Z,99.99
2022-09-27T06:23:01.531Z,99.99
2022-09-27T06:24:01.520Z,99.99
2022-09-27T06:25:01.532Z,99.99
2022-09-27T06:26:01.489Z,99.99
2022-09-27T06:27:01.477Z,99.99
2022-09-27T06:28:01.858Z,99.99
2022-09-27T06:29:01.447Z,99.99
2022-09-27T06:30:01.438Z,99.99
2022-09-27T06:31:01.506Z,99.99
2022-09-27T06:32:01.421Z,99.99
2022-09-27T06:33:01.430Z,99.99
2022-09-27T06:34:01.403Z,99.99
2022-09-27T06:35:01.367Z,99.99
2022-09-27T06:36:01.364Z,99.99
2022-09-27T06:37:01.337Z,99.99
2022-09-27T06:38:01.615Z,99.99
2022-09-27T06:39:01.316Z,99.99
2022-09-27T06:40:01.318Z,99.99
2022-09-27T06:41:01.299Z,99.99
2022-09-27T06:42:01.289Z,99.99
2022-09-27T06:43:01.297Z,99.99
2022-09-27T06:44:01.261Z,99.99
2022-09-27T06:45:01.277Z,99.99
2022-09-27T06:46:01.264Z,99.99
2022-09-27T06:47:01.218Z,99.99
2022-09-27T06:48:01.255Z,99.99
2022-09-27T06:49:01.197Z,99.99
2022-09-27T06:50:01.177Z,99.99
2022-09-27T06:51:01.168Z,99.99
2022-09-27T06:52:01.156Z,99.99
2022-09-27T06:53:01.158Z,99.99
2022-09-27T06:54:01.126Z,99.99
2022-09-27T06:55:01.107Z,99.99
2022-09-27T06:56:01.137Z,99.99
2022-09-27T06:57:02.602Z,99.99
2022-09-27T06:58:01.115Z,99.99
2022-09-27T06:59:01.056Z,99.99
2022-09-27T07:00:01.061Z,99.99
2022-09-27T07:01:01.087Z,99.99
2022-09-27T07:02:01.086Z,99.99
2022-09-27T07:03:01.063Z,99.99
2022-09-27T07:04:01.003Z,99.99
2022-09-27T07:05:00.976Z,99.99
2022-09-27T07:06:00.975Z,99.99
2022-09-27T07:07:00.957Z,99.99
2022-09-27T07:08:01.047Z,99.99
2022-09-27T07:09:00.943Z,99.99
2022-09-27T07:10:00.940Z,99.99
2022-09-27T07:11:00.904Z,99.99
2022-09-27T07:12:00.901Z,99.99
2022-09-27T07:13:00.917Z,99.99
2022-09-27T07:14:00.875Z,99.99
2022-09-27T07:15:00.854Z,99.99
2022-09-27T07:16:00.843Z,99.99
2022-09-27T07:17:00.852Z,99.99
2022-09-27T07:18:00.855Z,99.99
2022-09-27T07:19:00.794Z,99.99
2022-09-27T07:20:00.824Z,99.99
2022-09-27T07:21:00.829Z,99.99
2022-09-27T07:22:00.784Z,99.99
2022-09-27T07:23:00.778Z,99.99
2022-09-27T07:24:00.742Z,99.99
2022-09-27T07:25:00.723Z,99.99
2022-09-27T07:26:00.714Z,99.99
2022-09-27T07:27:00.707Z,99.99
2022-09-27T07:28:00.723Z,99.99
2022-09-27T07:29:00.671Z,99.99
2022-09-27T07:30:00.664Z,99.99
2022-09-27T07:31:00.761Z,99.99
2022-09-27T07:32:00.643Z,99.99
2022-09-27T07:33:00.663Z,99.99
2022-09-27T07:34:00.603Z,99.99
2022-09-27T07:35:00.597Z,99.99
2022-09-27T07:36:00.598Z,99.99
2022-09-27T07:37:00.601Z,99.99
2022-09-27T07:38:00.622Z,99.99
2022-09-27T07:39:00.544Z,99.99
2022-09-27T07:40:00.525Z,99.99
2022-09-27T07:41:00.553Z,99.99
2022-09-27T07:42:00.513Z,99.99
2022-09-27T07:43:00.530Z,99.99
2022-09-27T07:44:00.485Z,99.99
2022-09-27T07:45:00.471Z,99.99
2022-09-27T07:46:00.522Z,99.99
2022-09-27T07:47:00.449Z,99.99
2022-09-27T07:48:00.464Z,99.99
2022-09-27T07:49:00.421Z,99.99
2022-09-27T07:50:00.411Z,99.99
2022-09-27T07:51:00.392Z,99.99
2022-09-27T07:52:00.386Z,99.99
2022-09-27T07:53:00.411Z,99.99
2022-09-27T07:54:00.349Z,99.99
2022-09-27T07:55:00.337Z,99.99
2022-09-27T07:56:00.337Z,99.99
2022-09-27T07:57:00.303Z,99.99
2022-09-27T07:58:00.331Z,99.99
2022-09-27T07:59:00.360Z,99.99
2022-09-27T08:00:00.284Z,99.99
2022-09-27T08:01:00.356Z,99.99
2022-09-27T08:02:00.308Z,99.99
2022-09-27T08:03:00.283Z,99.99
2022-09-27T08:04:00.221Z,99.99
2022-09-27T08:05:00.208Z,99.99
2022-09-27T08:06:00.202Z,99.99
2022-09-27T08:07:00.200Z,99.99
2022-09-27T08:08:00.351Z,99.99
2022-09-27T08:09:00.151Z,99.99
2022-09-27T08:10:00.165Z,99.99
2022-09-27T08:11:00.130Z,99.99
2022-09-27T08:12:00.119Z,99.99
2022-09-27T08:13:00.140Z,99.99
2022-09-27T08:14:00.099Z,99.99
2022-09-27T08:15:00.091Z,99.99
2022-09-27T08:16:00.162Z,99.99
2022-09-27T08:17:00.064Z,99.99
2022-09-27T08:18:00.084Z,99.99
2022-09-27T08:19:00.024Z,99.99
2022-09-27T08:20:00.044Z,99.99
2022-09-27T08:21:00.008Z,99.99
2022-09-27T08:22:00.000Z,99.99
2022-09-27T08:23:00.061Z,99.99
2022-09-27T08:23:59.972Z,99.99
2022-09-27T08:24:59.952Z,99.99
2022-09-27T08:26:00.026Z,99.99
2022-09-27T08:26:59.931Z,99.99
2022-09-27T08:27:59.946Z,99.99
2022-09-27T08:28:59.890Z,99.99
2022-09-27T08:29:59.880Z,99.99
2022-09-27T08:30:59.874Z,99.99
2022-09-27T08:32:00.020Z,99.99
2022-09-27T08:32:59.894Z,99.99
2022-09-27T08:33:59.836Z,99.99
2022-09-27T08:34:59.819Z,99.99
2022-09-27T08:35:59.810Z,99.99
2022-09-27T08:36:59.799Z,99.99
2022-09-27T08:37:59.855Z,99.99
2022-09-27T08:38:59.769Z,99.99
2022-09-27T08:39:59.750Z,99.99
2022-09-27T08:40:59.758Z,99.99
2022-09-27T08:41:59.730Z,99.99
2022-09-27T08:42:59.746Z,99.99
2022-09-27T08:43:59.700Z,99.99
2022-09-27T08:45:03.113Z,99.99
2022-09-27T08:45:59.688Z,99.99
2022-09-27T08:46:59.659Z,99.99
2022-09-27T08:47:59.689Z,99.99
2022-09-27T08:48:59.641Z,99.99
2022-09-27T08:49:59.629Z,99.99
2022-09-27T08:50:59.609Z,99.99
2022-09-27T08:51:59.603Z,99.99
2022-09-27T08:52:59.618Z,99.99
2022-09-27T08:53:59.570Z,99.99
2022-09-27T08:55:00.053Z,99.99
2022-09-27T08:55:59.543Z,99.99
2022-09-27T08:56:59.536Z,99.99
2022-09-27T08:57:59.545Z,99.99
2022-09-27T08:58:59.499Z,99.99
2022-09-27T08:59:59.487Z,99.99
2022-09-27T09:00:59.586Z,99.99
2022-09-27T09:01:59.533Z,99.99
2022-09-27T09:02:59.504Z,99.99
2022-09-27T09:03:59.439Z,99.99
2022-09-27T09:04:59.443Z,99.99
2022-09-27T09:05:59.408Z,99.99
2022-09-27T09:06:59.406Z,99.99
2022-09-27T09:07:59.430Z,99.96
2022-09-27T09:08:59.377Z,99.99
2022-09-27T09:09:59.362Z,99.99
2022-09-27T09:10:59.356Z,99.99
2022-09-27T09:11:59.666Z,99.99
2022-09-27T09:12:59.358Z,99.99
2022-09-27T09:13:59.333Z,99.99
2022-09-27T09:14:59.299Z,99.99
2022-09-27T09:15:59.278Z,99.99
2022-09-27T09:16:59.267Z,99.99
2022-09-27T09:17:59.361Z,99.99
2022-09-27T09:18:59.248Z,99.99
2022-09-27T09:19:59.232Z,99.99
2022-09-27T09:20:59.218Z,99.99
2022-09-27T09:21:59.197Z,99.99
2022-09-27T09:22:59.217Z,99.99
2022-09-27T09:23:59.189Z,99.99
2022-09-27T09:24:59.187Z,99.99
2022-09-27T09:25:59.149Z,99.99
2022-09-27T09:26:59.147Z,99.99
2022-09-27T09:28:02.482Z,99.99
2022-09-27T09:28:59.117Z,99.32
2022-09-27T09:29:59.126Z,98.72
2022-09-27T09:30:59.128Z,94.98
2022-09-27T09:31:59.107Z,94.89
2022-09-27T09:32:59.165Z,95.34
2022-09-27T09:33:59.046Z,95.69
2022-09-27T09:34:59.053Z,96.61
2022-09-27T09:35:59.761Z,96.88
2022-09-27T09:36:59.023Z,97.04
2022-09-27T09:37:59.026Z,96.73
2022-09-27T09:38:58.986Z,94.18
2022-09-27T09:39:58.996Z,94.34
2022-09-27T09:40:58.979Z,96.14
2022-09-27T09:41:58.977Z,93.95
2022-09-27T09:42:59.017Z,90.03
2022-09-27T09:43:58.929Z,88.65
2022-09-27T09:44:58.910Z,90.75
2022-09-27T09:45:58.956Z,92.03
2022-09-27T09:46:58.887Z,88.63
2022-09-27T09:47:58.896Z,86.94
2022-09-27T09:48:58.885Z,86.43
2022-09-27T09:49:58.855Z,87.08
2022-09-27T09:50:58.829Z,88.46
2022-09-27T09:51:58.815Z,89.64
2022-09-27T09:52:58.840Z,88.34
2022-09-27T09:53:58.792Z,85.23
2022-09-27T09:54:58.798Z,86.53
2022-09-27T09:55:58.778Z,88.40
2022-09-27T09:56:58.758Z,90.08
2022-09-27T09:57:58.796Z,91.55
2022-09-27T09:58:58.730Z,90.83
2022-09-27T09:59:58.725Z,91.85
2022-09-27T10:00:58.754Z,90.47
2022-09-27T10:01:58.735Z,89.92
2022-09-27T10:02:58.706Z,89.25
2022-09-27T10:03:58.670Z,89.45
2022-09-27T10:05:07.446Z,88.28
2022-09-27T10:05:59.626Z,88.14
2022-09-27T10:06:58.648Z,88.75
2022-09-27T10:07:58.638Z,86.27
2022-09-27T10:08:58.594Z,88.36
2022-09-27T10:09:58.579Z,89.34
2022-09-27T10:10:58.566Z,86.55
2022-09-27T10:11:58.547Z,86.00
2022-09-27T10:12:59.516Z,85.15
2022-09-27T10:13:58.530Z,86.43
2022-09-27T10:14:58.594Z,84.16
2022-09-27T10:15:58.574Z,84.60
2022-09-27T10:16:58.489Z,86.47
2022-09-27T10:17:58.515Z,84.07
2022-09-27T10:18:58.465Z,83.84
2022-09-27T10:19:58.447Z,84.23
2022-09-27T10:20:58.447Z,85.66
2022-09-27T10:21:58.428Z,88.20
2022-09-27T10:22:58.436Z,83.74
2022-09-27T10:23:58.387Z,84.78
2022-09-27T10:24:58.429Z,82.06
2022-09-27T10:25:58.366Z,81.15
2022-09-27T10:26:58.356Z,80.41
2022-09-27T10:27:58.376Z,83.70
2022-09-27T10:28:58.340Z,84.59
2022-09-27T10:29:58.397Z,85.45
2022-09-27T10:30:58.317Z,87.26
2022-09-27T10:31:58.316Z,88.22
2022-09-27T10:32:58.341Z,88.73
2022-09-27T10:33:58.257Z,90.00
2022-09-27T10:34:58.247Z,88.61
2022-09-27T10:35:58.238Z,88.41
2022-09-27T10:36:58.234Z,89.47
2022-09-27T10:37:58.327Z,90.94
2022-09-27T10:38:58.205Z,92.68
2022-09-27T10:39:58.195Z,90.88
2022-09-27T10:40:58.192Z,93.44
2022-09-27T10:41:58.156Z,92.21
2022-09-27T10:42:58.177Z,92.36
2022-09-27T10:43:58.146Z,92.25
2022-09-27T10:44:58.118Z,93.84
2022-09-27T10:45:58.217Z,93.93
2022-09-27T10:46:58.107Z,93.32
2022-09-27T10:47:58.117Z,93.73
2022-09-27T10:48:58.077Z,94.55
2022-09-27T10:49:58.110Z,95.92
2022-09-27T10:50:59.185Z,96.39
2022-09-27T10:51:58.026Z,94.75
2022-09-27T10:52:58.067Z,96.44
2022-09-27T10:53:58.016Z,94.70
2022-09-27T10:54:58.037Z,93.51
2022-09-27T10:55:57.981Z,93.82
2022-09-27T10:56:57.967Z,94.78
2022-09-27T10:57:58.050Z,94.89
2022-09-27T10:58:57.935Z,95.54
2022-09-27T10:59:57.927Z,96.47
2022-09-27T11:00:57.987Z,96.67
2022-09-27T11:02:02.153Z,96.47
2022-09-27T11:02:57.917Z,97.39
2022-09-27T11:03:57.877Z,98.57
2022-09-27T11:04:57.896Z,98.93
2022-09-27T11:05:57.845Z,99.29
2022-09-27T11:06:57.836Z,98.99
2022-09-27T11:07:57.850Z,99.30
2022-09-27T11:08:57.807Z,99.31
2022-09-27T11:09:57.826Z,98.96
2022-09-27T11:10:57.787Z,97.49
2022-09-27T11:11:57.783Z,93.05
2022-09-27T11:12:57.787Z,95.60
2022-09-27T11:13:57.753Z,94.48
2022-09-27T11:14:57.726Z,93.66
2022-09-27T11:15:57.766Z,94.98
2022-09-27T11:16:57.717Z,94.12
2022-09-27T11:17:57.737Z,94.33
2022-09-27T11:18:57.677Z,94.98
2022-09-27T11:19:57.664Z,94.27
2022-09-27T11:20:57.656Z,93.09
2022-09-27T11:21:57.670Z,94.26
2022-09-27T11:22:57.663Z,95.69
2022-09-27T11:23:57.609Z,97.58
2022-09-27T11:24:57.606Z,96.83
2022-09-27T11:25:57.582Z,95.70
2022-09-27T11:26:57.577Z,94.68
2022-09-27T11:27:57.585Z,94.32
2022-09-27T11:28:57.577Z,94.62
2022-09-27T11:29:57.548Z,94.67
2022-09-27T11:30:57.534Z,93.59
2022-09-27T11:31:57.550Z,93.28
2022-09-27T11:32:57.538Z,93.43
2022-09-27T11:33:57.553Z,94.08
2022-09-27T11:34:57.477Z,95.00
2022-09-27T11:35:57.455Z,94.29
2022-09-27T11:36:57.476Z,96.03
2022-09-27T11:37:57.424Z,96.39
2022-09-27T11:39:02.340Z,95.17
2022-09-27T11:39:58.420Z,96.23
2022-09-27T11:40:57.404Z,97.82
2022-09-27T11:41:57.407Z,97.00
2022-09-27T11:42:57.367Z,95.88
2022-09-27T11:43:57.346Z,96.39
2022-09-27T11:45:19.846Z,96.70
2022-09-27T11:46:58.525Z,96.91
2022-09-27T11:47:57.483Z,98.33
2022-09-27T11:48:57.294Z,97.21
2022-09-27T11:49:57.274Z,96.29
2022-09-27T11:50:57.266Z,96.54
2022-09-27T11:51:57.272Z,97.77
2022-09-27T11:52:57.244Z,97.82
2022-09-27T11:53:57.215Z,97.46
2022-09-27T11:54:57.204Z,97.87
2022-09-27T11:55:57.194Z,98.24
2022-09-27T11:56:57.224Z,98.29
2022-09-27T11:57:57.178Z,96.00
2022-09-27T11:58:57.169Z,93.65
2022-09-27T11:59:57.183Z,93.65
2022-09-27T12:00:57.133Z,94.20
2022-09-27T12:01:57.177Z,94.60
2022-09-27T12:02:57.205Z,94.55
2022-09-27T12:03:57.084Z,96.80
2022-09-27T12:04:57.073Z,95.31
2022-09-27T12:05:59.871Z,96.44
2022-09-27T12:06:57.101Z,96.54
2022-09-27T12:07:57.064Z,95.51
2022-09-27T12:08:57.037Z,95.21
2022-09-27T12:09:57.024Z,96.74
2022-09-27T12:10:57.004Z,95.92
2022-09-27T12:11:56.994Z,96.84
2022-09-27T12:12:57.020Z,96.29
2022-09-27T12:13:56.975Z,96.08
2022-09-27T12:14:56.945Z,94.75
2022-09-27T12:15:56.986Z,96.59
2022-09-27T12:16:56.935Z,95.98
2022-09-27T12:17:56.934Z,94.90
2022-09-27T12:18:56.913Z,96.13
2022-09-27T12:19:56.881Z,97.87
2022-09-27T12:20:56.873Z,98.24
2022-09-27T12:21:56.904Z,95.78
2022-09-27T12:22:59.705Z,95.98
2022-09-27T12:23:56.823Z,95.78
2022-09-27T12:24:56.824Z,97.00
2022-09-27T12:25:56.814Z,97.62
2022-09-27T12:26:56.794Z,96.19
2022-09-27T12:27:56.829Z,95.21
2022-09-27T12:28:56.763Z,96.54
2022-09-27T12:29:56.753Z,97.77
2022-09-27T12:31:17.367Z,97.82
2022-09-27T12:31:57.791Z,96.13
2022-09-27T12:32:56.776Z,96.23
2022-09-27T12:33:56.705Z,97.21
2022-09-27T12:34:56.703Z,97.27
2022-09-27T12:35:56.673Z,97.06
2022-09-27T12:36:56.664Z,96.96
2022-09-27T12:37:56.675Z,93.79
2022-09-27T12:38:56.645Z,96.51
2022-09-27T12:39:56.631Z,94.82
2022-09-27T12:40:56.654Z,95.34
2022-09-27T12:41:56.602Z,94.98
2022-09-27T12:42:56.618Z,94.78
2022-09-27T12:43:56.563Z,92.37
2022-09-27T12:44:56.585Z,94.21
2022-09-27T12:45:56.552Z,93.40
2022-09-27T12:46:56.607Z,94.26
2022-09-27T12:47:56.553Z,94.87
2022-09-27T12:48:56.506Z,93.38
2022-09-27T12:50:01.025Z,95.02
2022-09-27T12:50:57.492Z,94.51
2022-09-27T12:51:56.463Z,94.14
2022-09-27T12:52:56.494Z,94.55